Time;durP1;ratioP1;P1;durP2;ratioP2;P2;SDS_P1;SDS_P2;PMS_P1;PMS_P2;Temp;Humidity;BMP_temperature;BMP_pressure;BME280_temperature;BME280_humidity;BME280_pressure;Samples;Min_cycle;Max_cycle;Signal;HPM_P1;HPM_P2
2021/07/30 00:00:59;;;;;;;7.40;2.33;;;17.30;54.90;;;;;;5093540;28;20031;-60
2021/07/30 00:03:26;;;;;;;6.72;2.33;;;17.40;53.80;;;;;;5094845;28;20043;-57
2021/07/30 00:05:54;;;;;;;7.20;2.55;;;17.50;54.80;;;;;;5094787;28;20173;-60
2021/07/30 00:08:21;;;;;;;4.22;2.20;;;17.50;53.70;;;;;;5092868;28;20584;-59
2021/07/30 00:10:52;;;;;;;5.72;3.00;;;17.70;53.80;;;;;;5078066;28;20417;-59
2021/07/30 00:13:20;;;;;;;4.10;2.28;;;17.80;53.00;;;;;;5100509;28;20030;-58
2021/07/30 00:15:47;;;;;;;4.53;2.33;;;18.00;53.80;;;;;;5096702;28;20024;-58
2021/07/30 00:18:15;;;;;;;5.18;2.65;;;18.10;53.40;;;;;;5093589;28;20059;-56
2021/07/30 00:20:42;;;;;;;7.25;2.85;;;18.20;52.80;;;;;;5083374;28;20032;-47
2021/07/30 00:23:10;;;;;;;7.72;2.42;;;18.00;52.10;;;;;;5097186;28;20028;-52
2021/07/30 00:25:37;;;;;;;6.45;2.88;;;17.90;51.10;;;;;;5093578;28;20111;-49
2021/07/30 00:28:05;;;;;;;6.43;2.35;;;17.90;51.50;;;;;;5096225;28;20525;-51
2021/07/30 00:30:32;;;;;;;8.00;2.40;;;18.00;52.00;;;;;;5097832;28;20573;-53
2021/07/30 00:33:00;;;;;;;6.85;3.13;;;17.90;52.00;;;;;;5088773;28;20035;-53
2021/07/30 00:35:28;;;;;;;10.38;2.83;;;17.90;51.20;;;;;;5096264;28;20032;-55
2021/07/30 00:37:55;;;;;;;5.80;2.53;;;18.10;51.30;;;;;;5096012;28;20027;-57
2021/07/30 00:40:22;;;;;;;4.72;2.30;;;18.30;50.80;;;;;;5078645;28;20035;-60
2021/07/30 00:42:53;;;;;;;5.40;2.20;;;18.50;50.10;;;;;;5096883;28;20039;-56
2021/07/30 00:45:21;;;;;;;7.75;2.25;;;18.60;51.60;;;;;;5096078;28;20054;-56
2021/07/30 00:47:50;;;;;;;8.45;2.20;;;18.80;50.80;;;;;;5091402;28;20015;-52
2021/07/30 00:50:18;;;;;;;11.90;2.55;;;18.80;51.10;;;;;;5094621;28;21419;-57
2021/07/30 00:52:46;;;;;;;11.43;2.50;;;19.10;49.90;;;;;;5096856;28;20655;-56
2021/07/30 00:55:14;;;;;;;9.43;3.03;;;19.20;50.80;;;;;;5095907;28;20667;-57
2021/07/30 00:57:43;;;;;;;6.60;2.33;;;19.30;49.30;;;;;;5087016;28;20731;-52
2021/07/30 01:00:11;;;;;;;6.20;2.25;;;19.40;50.30;;;;;;5092145;28;20023;-57
2021/07/30 01:02:39;;;;;;;4.75;1.67;;;19.50;50.40;;;;;;5090818;28;20047;-59
2021/07/30 01:05:08;;;;;;;9.30;3.03;;;19.50;48.10;;;;;;5076340;28;20456;-57
2021/07/30 01:07:35;;;;;;;6.13;2.78;;;19.60;48.00;;;;;;5092245;28;20027;-59
2021/07/30 01:10:02;;;;;;;7.47;2.42;;;19.60;49.40;;;;;;5079657;28;20027;-60
2021/07/30 01:12:30;;;;;;;9.23;2.80;;;19.70;49.50;;;;;;5094224;28;20067;-58
2021/07/30 01:14:57;;;;;;;6.07;2.45;;;19.80;50.20;;;;;;5092626;28;20055;-56
2021/07/30 01:17:25;;;;;;;6.55;2.40;;;19.90;49.30;;;;;;5095348;28;20070;-59
2021/07/30 01:19:55;;;;;;;6.57;2.33;;;20.00;50.30;;;;;;5095270;28;20033;-57
2021/07/30 01:22:24;;;;;;;5.43;2.00;;;20.00;48.60;;;;;;5088368;28;20853;-57
2021/07/30 01:24:53;;;;;;;5.40;1.77;;;19.90;50.20;;;;;;5095829;28;20123;-58
2021/07/30 01:27:21;;;;;;;4.03;2.08;;;20.00;50.20;;;;;;5077349;28;20117;-54
2021/07/30 01:29:49;;;;;;;4.88;2.33;;;20.20;49.90;;;;;;5089764;28;20112;-53
2021/07/30 01:32:17;;;;;;;4.72;1.80;;;20.20;50.10;;;;;;5099674;28;20035;-59
2021/07/30 01:34:45;;;;;;;10.55;3.35;;;20.20;49.00;;;;;;5092482;28;20111;-51
2021/07/30 01:37:12;;;;;;;7.18;2.83;;;20.30;48.20;;;;;;5094124;28;20107;-56
2021/07/30 01:39:40;;;;;;;6.05;2.63;;;20.50;48.50;;;;;;5091775;28;20028;-52
2021/07/30 01:42:08;;;;;;;6.32;2.28;;;20.50;49.00;;;;;;5096215;28;20035;-57
2021/07/30 01:44:35;;;;;;;5.28;2.17;;;20.60;49.00;;;;;;5092155;28;20342;-55
2021/07/30 01:47:03;;;;;;;4.15;1.73;;;20.70;48.40;;;;;;5095349;28;20023;-55
2021/07/30 01:49:30;;;;;;;8.18;2.40;;;20.70;49.20;;;;;;5068632;28;20064;-58
2021/07/30 01:51:57;;;;;;;7.28;2.40;;;20.70;48.80;;;;;;5095468;28;20035;-56
2021/07/30 01:54:25;;;;;;;5.57;2.08;;;20.70;49.50;;;;;;5095695;28;20028;-60
2021/07/30 01:56:53;;;;;;;7.03;2.55;;;20.70;47.00;;;;;;5075105;28;20024;-57
2021/07/30 01:59:20;;;;;;;7.78;2.65;;;20.80;48.00;;;;;;5096506;28;20038;-55
2021/07/30 02:01:47;;;;;;;9.25;2.20;;;20.90;49.00;;;;;;5088903;28;20111;-59
2021/07/30 02:04:18;;;;;;;7.30;1.88;;;20.80;48.30;;;;;;5092247;28;20032;-56
2021/07/30 02:06:46;;;;;;;5.95;2.70;;;20.90;48.50;;;;;;5099587;28;20497;-57
2021/07/30 02:09:13;;;;;;;5.80;2.05;;;20.90;47.00;;;;;;5094885;28;20024;-60
2021/07/30 02:11:53;;;;;;;6.47;2.08;;;21.00;47.80;;;;;;5075467;28;20020;-61
2021/07/30 02:14:25;;;;;;;5.70;2.10;;;21.10;48.30;;;;;;5076977;28;20024;-58
2021/07/30 02:17:00;;;;;;;5.18;2.10;;;21.20;47.90;;;;;;5090682;28;20127;-59
2021/07/30 02:19:27;;;;;;;7.63;2.17;;;21.20;46.40;;;;;;5086898;28;20024;-55
2021/07/30 02:21:56;;;;;;;6.40;2.17;;;21.10;47.90;;;;;;5096011;28;20487;-60
2021/07/30 02:24:26;;;;;;;7.93;2.10;;;21.10;47.70;;;;;;5096294;28;20121;-58
2021/07/30 02:26:54;;;;;;;3.83;1.63;;;21.20;47.70;;;;;;5099684;28;20036;-58
2021/07/30 02:29:21;;;;;;;2.75;1.38;;;21.30;48.10;;;;;;5091028;28;20056;-58
2021/07/30 02:31:49;;;;;;;6.30;1.67;;;21.40;46.80;;;;;;5097959;28;20416;-58
2021/07/30 02:34:16;;;;;;;10.52;2.88;;;21.30;49.20;;;;;;5093787;28;20136;-59
2021/07/30 02:36:44;;;;;;;5.20;1.90;;;21.40;44.70;;;;;;5100224;28;20118;-63
2021/07/30 02:39:12;;;;;;;4.13;1.67;;;21.50;46.70;;;;;;5090461;28;20609;-59
2021/07/30 02:41:39;;;;;;;4.28;1.88;;;21.60;47.20;;;;;;5096761;28;20104;-61
2021/07/30 02:44:06;;;;;;;5.07;1.77;;;21.60;48.90;;;;;;5090864;28;20043;-63
2021/07/30 02:46:34;;;;;;;3.08;1.58;;;21.70;46.10;;;;;;5096857;28;20024;-59
2021/07/30 02:49:01;;;;;;;5.57;1.83;;;21.60;45.40;;;;;;5099440;28;20082;-58
2021/07/30 02:51:28;;;;;;;5.07;1.92;;;21.60;44.90;;;;;;5095236;28;20131;-61
2021/07/30 02:53:56;;;;;;;5.70;1.85;;;21.60;44.90;;;;;;5097854;28;20036;-56
2021/07/30 02:56:23;;;;;;;6.82;2.33;;;21.80;46.60;;;;;;5100887;28;20114;-57
2021/07/30 02:58:50;;;;;;;4.10;1.65;;;21.90;44.30;;;;;;5089062;28;20038;-56
2021/07/30 03:01:18;;;;;;;4.30;2.00;;;21.90;44.20;;;;;;5098377;28;20032;-57
2021/07/30 03:03:45;;;;;;;4.15;1.45;;;21.80;47.10;;;;;;5095074;28;20042;-60
2021/07/30 03:06:12;;;;;;;6.45;2.00;;;22.00;47.80;;;;;;5078433;28;20039;-57
2021/07/30 03:08:40;;;;;;;3.95;1.67;;;22.00;48.40;;;;;;5102414;28;20061;-62
2021/07/30 03:11:07;;;;;;;7.20;1.83;;;22.00;46.70;;;;;;5076076;28;20473;-58
2021/07/30 03:13:46;;;;;;;4.78;1.85;;;22.20;47.00;;;;;;5095653;28;20488;-59
2021/07/30 03:16:13;;;;;;;8.80;3.53;;;22.20;44.80;;;;;;5086889;28;20093;-66
2021/07/30 03:18:44;;;;;;;28.73;13.13;;;22.30;45.60;;;;;;5102179;28;20032;-62
2021/07/30 03:21:11;;;;;;;45.20;22.15;;;22.40;45.10;;;;;;5095824;28;20383;-60
2021/07/30 03:23:41;;;;;;;54.25;25.38;;;22.40;47.00;;;;;;5097637;28;20042;-53
2021/07/30 03:26:09;;;;;;;48.50;23.35;;;22.50;47.20;;;;;;5097800;28;20023;-60
2021/07/30 03:28:37;;;;;;;58.90;28.20;;;22.60;45.40;;;;;;5100053;28;20108;-61
2021/07/30 03:31:04;;;;;;;71.40;34.85;;;22.60;44.90;;;;;;5092333;28;20055;-57
2021/07/30 03:33:31;;;;;;;58.92;26.10;;;22.70;47.00;;;;;;5096511;28;20058;-60
2021/07/30 03:35:59;;;;;;;53.63;26.17;;;22.60;43.90;;;;;;5097273;28;20024;-61
2021/07/30 03:38:26;;;;;;;43.40;20.13;;;22.50;46.10;;;;;;5101813;28;20023;-59
2021/07/30 03:40:53;;;;;;;48.08;22.20;;;22.60;45.50;;;;;;5091096;28;20028;-61
2021/07/30 03:43:21;;;;;;;51.03;23.55;;;22.60;44.70;;;;;;5098464;28;20042;-62
2021/07/30 03:45:48;;;;;;;42.20;20.83;;;22.40;43.80;;;;;;5098079;28;20035;-62
2021/07/30 03:48:15;;;;;;;48.85;22.67;;;22.40;43.70;;;;;;5097347;28;20035;-62
2021/07/30 03:50:43;;;;;;;52.97;21.50;;;22.40;45.20;;;;;;5096536;28;20024;-59
2021/07/30 03:53:10;;;;;;;52.85;24.80;;;22.50;45.90;;;;;;5082155;28;20155;-65
2021/07/30 03:55:38;;;;;;;49.22;22.90;;;22.40;47.80;;;;;;5101290;28;20027;-60
2021/07/30 03:58:05;;;;;;;37.38;20.60;;;22.50;45.50;;;;;;5082160;28;20437;-61
2021/07/30 04:00:32;;;;;;;54.00;25.70;;;22.60;44.60;;;;;;5097123;28;20093;-60
2021/07/30 04:03:00;;;;;;;47.70;25.02;;;22.60;47.80;;;;;;5097530;28;20118;-61
2021/07/30 04:05:27;;;;;;;48.78;23.77;;;22.60;47.80;;;;;;5076628;28;20020;-63
2021/07/30 04:07:56;;;;;;;54.17;25.27;;;22.70;47.50;;;;;;5095850;28;21418;-61
2021/07/30 04:10:24;;;;;;;39.05;19.75;;;22.70;46.90;;;;;;5097040;28;20074;-58
2021/07/30 04:12:51;;;;;;;46.10;22.92;;;22.80;44.80;;;;;;5099037;28;20540;-62
2021/07/30 04:15:18;;;;;;;51.17;24.15;;;22.90;46.80;;;;;;5096684;28;20779;-62
2021/07/30 04:17:48;;;;;;;45.47;22.98;;;22.60;47.90;;;;;;5078327;28;20039;-64
2021/07/30 04:20:15;;;;;;;49.70;24.85;;;22.60;47.30;;;;;;5096943;28;20031;-63
2021/07/30 04:22:43;;;;;;;38.30;19.70;;;22.60;48.30;;;;;;5097213;28;20028;-58
2021/07/30 04:25:13;;;;;;;36.28;18.35;;;22.70;45.60;;;;;;5098479;28;20031;-56
2021/07/30 04:27:40;;;;;;;35.50;20.05;;;22.80;46.50;;;;;;5073463;28;20031;-60
2021/07/30 04:30:08;;;;;;;44.97;23.38;;;22.70;46.50;;;;;;5094206;28;20085;-59
2021/07/30 04:32:39;;;;;;;47.97;24.13;;;22.70;48.10;;;;;;5094974;28;20024;-58
2021/07/30 04:35:06;;;;;;;34.00;18.10;;;22.60;48.20;;;;;;5094180;28;20038;-63
2021/07/30 04:37:36;;;;;;;46.20;22.00;;;22.70;47.40;;;;;;5094854;28;20356;-61
2021/07/30 04:40:05;;;;;;;33.10;16.38;;;22.70;48.20;;;;;;5098661;28;20101;-61
2021/07/30 04:42:32;;;;;;;31.60;15.40;;;22.50;46.00;;;;;;5098479;28;20066;-59
2021/07/30 04:44:59;;;;;;;33.75;15.07;;;22.60;46.70;;;;;;5096136;28;20031;-59
2021/07/30 04:47:27;;;;;;;38.70;15.95;;;22.50;46.10;;;;;;5105131;28;20397;-58
2021/07/30 04:49:54;;;;;;;34.38;16.58;;;22.60;46.70;;;;;;5092802;28;20024;-58
2021/07/30 04:52:21;;;;;;;35.85;18.75;;;22.60;47.50;;;;;;5093680;28;20107;-59
2021/07/30 04:54:49;;;;;;;36.78;20.20;;;22.60;48.60;;;;;;5096501;28;20035;-58
2021/07/30 04:57:16;;;;;;;34.53;17.70;;;22.60;48.40;;;;;;5097493;28;20134;-60
2021/07/30 04:59:43;;;;;;;34.55;17.42;;;22.50;48.70;;;;;;5099894;28;20031;-59
2021/07/30 05:02:11;;;;;;;26.48;13.07;;;22.60;48.40;;;;;;5093401;28;20124;-60
2021/07/30 05:04:38;;;;;;;26.75;12.85;;;22.60;47.50;;;;;;5097610;28;20065;-59
2021/07/30 05:07:06;;;;;;;27.50;14.57;;;22.50;46.50;;;;;;5097320;28;20027;-57
2021/07/30 05:09:34;;;;;;;33.60;15.40;;;22.50;48.00;;;;;;5092989;28;20445;-57
2021/07/30 05:12:01;;;;;;;32.67;16.58;;;22.50;48.20;;;;;;5096290;28;20109;-58
2021/07/30 05:14:31;;;;;;;25.65;11.52;;;22.60;48.60;;;;;;5096173;28;20028;-57
2021/07/30 05:17:03;;;;;;;34.28;16.98;;;22.50;46.80;;;;;;5095260;28;20036;-58
2021/07/30 05:19:30;;;;;;;21.73;12.23;;;22.50;48.00;;;;;;5095757;28;20168;-57
2021/07/30 05:21:58;;;;;;;24.10;12.48;;;22.50;47.00;;;;;;5096447;28;20268;-60
2021/07/30 05:24:25;;;;;;;27.80;11.85;;;22.50;46.90;;;;;;5096476;28;20039;-62
2021/07/30 05:26:53;;;;;;;19.60;10.65;;;22.50;47.50;;;;;;5091921;28;20047;-60
2021/07/30 05:29:21;;;;;;;21.30;9.68;;;22.50;46.70;;;;;;5095173;28;20059;-59
2021/07/30 05:31:48;;;;;;;27.25;14.10;;;22.50;46.90;;;;;;5093253;28;20119;-60
2021/07/30 05:34:16;;;;;;;20.05;11.10;;;22.50;49.20;;;;;;5099206;28;20020;-60
2021/07/30 05:36:43;;;;;;;21.48;11.48;;;22.60;48.60;;;;;;5102169;28;20030;-61
2021/07/30 05:39:10;;;;;;;25.52;13.82;;;22.60;47.80;;;;;;5075037;28;20111;-56
2021/07/30 05:41:37;;;;;;;25.10;12.32;;;22.60;48.60;;;;;;5095185;28;20107;-59
2021/07/30 05:44:05;;;;;;;29.55;15.63;;;22.50;48.80;;;;;;5091186;28;20048;-64
2021/07/30 05:46:32;;;;;;;29.02;14.55;;;22.50;49.30;;;;;;5081674;28;20181;-53
2021/07/30 05:49:03;;;;;;;26.95;14.20;;;22.50;49.30;;;;;;5085335;28;20080;-57
2021/07/30 05:51:30;;;;;;;30.67;14.15;;;22.50;49.30;;;;;;5085168;28;20043;-55
2021/07/30 05:53:57;;;;;;;20.60;11.38;;;22.60;49.00;;;;;;5084940;28;20024;-61
2021/07/30 05:56:25;;;;;;;15.05;9.68;;;22.50;48.00;;;;;;5066591;28;20027;-60
2021/07/30 05:58:52;;;;;;;23.10;10.85;;;22.30;47.90;;;;;;5084938;28;20032;-60
2021/07/30 06:01:19;;;;;;;21.85;9.57;;;22.20;48.50;;;;;;5066593;28;20028;-60
2021/07/30 06:03:47;;;;;;;17.80;9.30;;;21.90;48.70;;;;;;5084519;28;20058;-62
2021/07/30 06:06:14;;;;;;;19.25;10.68;;;21.70;48.90;;;;;;5084975;28;20132;-57
2021/07/30 06:08:42;;;;;;;17.10;10.25;;;21.30;50.00;;;;;;5084878;28;20028;-61
2021/07/30 06:11:09;;;;;;;20.20;10.40;;;21.00;51.00;;;;;;5084716;28;20394;-62
2021/07/30 06:13:36;;;;;;;20.17;10.57;;;20.80;51.10;;;;;;5084716;28;20108;-62
2021/07/30 06:16:07;;;;;;;22.50;9.85;;;20.50;52.50;;;;;;5066759;28;20277;-56
2021/07/30 06:18:34;;;;;;;22.35;8.75;;;20.30;52.50;;;;;;5067461;28;20031;-57
2021/07/30 06:21:01;;;;;;;23.33;8.18;;;20.20;52.70;;;;;;5084671;28;20258;-62
2021/07/30 06:23:29;;;;;;;17.38;7.45;;;20.10;52.60;;;;;;5084751;28;20035;-60
2021/07/30 06:25:56;;;;;;;19.98;8.00;;;20.00;53.00;;;;;;5084847;28;20024;-61
2021/07/30 06:28:23;;;;;;;17.83;9.20;;;19.80;53.40;;;;;;5084318;28;20039;-56
2021/07/30 06:30:51;;;;;;;16.83;8.23;;;19.70;54.40;;;;;;5084501;28;20032;-60
2021/07/30 06:33:21;;;;;;;16.35;8.07;;;19.50;54.40;;;;;;5084492;28;20020;-58
2021/07/30 06:35:51;;;;;;;15.18;8.45;;;19.40;54.60;;;;;;5084632;28;20043;-63
2021/07/30 06:38:19;;;;;;;18.15;9.00;;;19.30;55.10;;;;;;5084625;28;20022;-59
2021/07/30 06:40:47;;;;;;;15.70;8.38;;;19.20;55.80;;;;;;5084730;28;20075;-61
2021/07/30 06:43:14;;;;;;;15.88;7.93;;;19.00;56.10;;;;;;5084302;28;20036;-64
2021/07/30 06:45:44;;;;;;;14.27;7.78;;;19.00;56.40;;;;;;5084662;28;20376;-59
2021/07/30 06:48:11;;;;;;;16.42;7.20;;;18.90;56.50;;;;;;5085044;28;20047;-59
2021/07/30 06:50:39;;;;;;;12.52;7.50;;;18.80;56.70;;;;;;5082905;28;20085;-63
2021/07/30 06:53:07;;;;;;;21.27;8.80;;;18.80;56.80;;;;;;5087957;28;20020;-58
2021/07/30 06:55:34;;;;;;;15.80;8.00;;;18.70;57.30;;;;;;5089987;28;20089;-57
2021/07/30 06:58:01;;;;;;;17.17;8.75;;;18.60;57.60;;;;;;5096543;28;20500;-58
2021/07/30 07:00:29;;;;;;;13.35;7.30;;;18.50;57.50;;;;;;5089146;28;20036;-59
2021/07/30 07:02:56;;;;;;;15.55;7.57;;;18.50;57.60;;;;;;5095445;28;20036;-69
2021/07/30 07:05:23;;;;;;;17.15;7.72;;;18.40;58.00;;;;;;5094973;28;20031;-62
2021/07/30 07:07:52;;;;;;;13.63;7.63;;;18.30;58.00;;;;;;5090377;28;20016;-57
2021/07/30 07:10:19;;;;;;;13.45;7.95;;;18.30;58.00;;;;;;5093681;28;20036;-59
2021/07/30 07:12:47;;;;;;;14.32;7.63;;;18.20;58.20;;;;;;5095738;28;20031;-63
2021/07/30 07:15:14;;;;;;;17.58;7.82;;;18.20;58.30;;;;;;5091083;28;20347;-59
2021/07/30 07:17:42;;;;;;;15.63;7.07;;;18.10;58.90;;;;;;5091198;28;20039;-60
2021/07/30 07:20:10;;;;;;;12.60;7.07;;;18.10;58.40;;;;;;5093559;28;20038;-60
2021/07/30 07:22:37;;;;;;;16.42;7.85;;;18.00;58.50;;;;;;5094692;28;20048;-60
2021/07/30 07:25:08;;;;;;;13.23;7.13;;;18.00;58.60;;;;;;5088445;28;20028;-62
2021/07/30 07:27:37;;;;;;;13.43;7.53;;;17.90;58.80;;;;;;5090683;28;20024;-67
2021/07/30 07:30:04;;;;;;;14.23;7.03;;;17.90;58.70;;;;;;5072596;28;20769;-68
2021/07/30 07:32:32;;;;;;;14.80;7.85;;;17.80;58.90;;;;;;5094444;28;20047;-55
2021/07/30 07:34:59;;;;;;;13.43;7.30;;;17.80;59.00;;;;;;5097821;28;20536;-57
2021/07/30 07:37:28;;;;;;;16.30;7.78;;;17.70;59.20;;;;;;5099553;28;20023;-60
2021/07/30 07:39:55;;;;;;;13.10;7.13;;;17.60;59.30;;;;;;5097440;28;21192;-61
2021/07/30 07:42:22;;;;;;;14.45;7.13;;;17.70;59.60;;;;;;5098780;28;20024;-62
2021/07/30 07:44:53;;;;;;;12.27;6.40;;;17.60;59.50;;;;;;5072540;28;20862;-66
2021/07/30 07:47:20;;;;;;;11.48;6.82;;;17.60;59.40;;;;;;5094503;28;20044;-57
2021/07/30 07:49:47;;;;;;;11.20;6.50;;;17.60;59.50;;;;;;5101233;28;20036;-64
2021/07/30 07:52:15;;;;;;;11.05;6.47;;;17.50;59.50;;;;;;5099278;28;20020;-60
2021/07/30 07:54:42;;;;;;;9.90;6.07;;;17.50;59.60;;;;;;5097348;28;20430;-61
2021/07/30 07:57:09;;;;;;;11.18;6.45;;;17.50;59.60;;;;;;5090003;28;20040;-62
2021/07/30 07:59:37;;;;;;;11.68;6.57;;;17.50;59.60;;;;;;5095384;28;20162;-61
2021/07/30 08:02:09;;;;;;;16.25;6.65;;;17.50;59.70;;;;;;5096525;28;20108;-65
2021/07/30 08:04:36;;;;;;;10.85;5.72;;;17.40;59.70;;;;;;5092020;28;20042;-62
2021/07/30 08:07:07;;;;;;;13.80;6.38;;;17.50;59.70;;;;;;5097783;28;21172;-61
2021/07/30 08:09:35;;;;;;;11.05;6.00;;;17.40;59.70;;;;;;5097360;28;20027;-63
2021/07/30 08:12:03;;;;;;;12.90;5.65;;;17.40;59.80;;;;;;5078997;28;20054;-58
2021/07/30 08:14:31;;;;;;;11.85;6.35;;;17.40;59.80;;;;;;5097332;28;20028;-55
2021/07/30 08:16:58;;;;;;;13.80;6.47;;;17.40;59.90;;;;;;5093669;28;20084;-60
2021/07/30 08:19:26;;;;;;;9.63;6.13;;;17.30;59.80;;;;;;5092957;28;20053;-59
2021/07/30 08:21:53;;;;;;;14.32;6.70;;;17.30;59.80;;;;;;5097295;28;20024;-57
2021/07/30 08:24:20;;;;;;;10.98;5.60;;;17.30;59.90;;;;;;5093379;28;20125;-57
2021/07/30 08:26:48;;;;;;;11.23;5.95;;;17.20;59.90;;;;;;5098776;28;20031;-61
2021/07/30 08:29:17;;;;;;;9.45;5.38;;;17.20;60.00;;;;;;5079108;28;20087;-59
2021/07/30 08:31:44;;;;;;;10.15;5.60;;;17.20;60.70;;;;;;5092116;28;20070;-61
2021/07/30 08:34:15;;;;;;;11.70;5.65;;;17.20;60.00;;;;;;5102444;28;20058;-62
2021/07/30 08:36:43;;;;;;;10.30;5.78;;;17.20;60.10;;;;;;5098131;28;20030;-54
2021/07/30 08:39:11;;;;;;;11.07;6.13;;;17.20;60.10;;;;;;5076485;28;20474;-62
2021/07/30 08:41:39;;;;;;;11.65;5.80;;;17.20;60.20;;;;;;5091493;28;20081;-61
2021/07/30 08:44:11;;;;;;;9.40;5.20;;;17.10;60.10;;;;;;5085081;28;20046;-57
2021/07/30 08:46:40;;;;;;;10.07;4.85;;;17.10;60.30;;;;;;5086596;28;20059;-63
2021/07/30 08:49:08;;;;;;;8.57;4.78;;;17.10;60.20;;;;;;5086317;28;20078;-61
2021/07/30 08:51:43;;;;;;;9.77;5.30;;;17.10;60.30;;;;;;5086467;28;20020;-61
2021/07/30 08:54:10;;;;;;;8.75;5.65;;;17.10;60.40;;;;;;5087022;28;20008;-57
2021/07/30 08:56:42;;;;;;;7.85;5.28;;;17.00;60.20;;;;;;5087004;28;20516;-61
2021/07/30 08:59:09;;;;;;;11.70;5.60;;;17.00;60.30;;;;;;5086944;28;20020;-57
2021/07/30 09:01:37;;;;;;;12.07;5.20;;;17.00;60.40;;;;;;5086121;28;20040;-61
2021/07/30 09:04:04;;;;;;;8.95;4.63;;;16.90;60.50;;;;;;5085640;28;20036;-60
2021/07/30 09:06:32;;;;;;;11.10;6.07;;;16.90;60.40;;;;;;5085720;28;20478;-59
2021/07/30 09:09:02;;;;;;;7.47;4.35;;;16.90;60.50;;;;;;5085369;28;20032;-61
2021/07/30 09:11:35;;;;;;;9.32;4.68;;;16.80;60.60;;;;;;5086105;28;20049;-59
2021/07/30 09:14:10;;;;;;;8.82;5.10;;;16.80;60.80;;;;;;5086111;28;20028;-63
2021/07/30 09:16:57;;;;;;;8.15;4.38;;;16.80;60.80;;;;;;5085891;28;20028;-59
2021/07/30 09:19:25;;;;;;;7.68;4.78;;;16.80;60.70;;;;;;5086224;28;20134;-64
2021/07/30 09:22:11;;;;;;;8.63;4.53;;;16.80;60.80;;;;;;5086420;28;20463;-58
2021/07/30 09:24:43;;;;;;;7.82;4.57;;;16.70;60.90;;;;;;5086679;28;20112;-61
2021/07/30 09:27:13;;;;;;;9.32;5.00;;;16.70;60.90;;;;;;5086297;28;20040;-55
2021/07/30 09:29:41;;;;;;;8.18;4.70;;;16.70;60.90;;;;;;5085820;28;20047;-59
2021/07/30 09:32:14;;;;;;;9.63;5.53;;;16.60;60.60;;;;;;5083666;28;20193;-58
2021/07/30 09:34:52;;;;;;;7.88;5.72;;;16.60;61.00;;;;;;5094152;28;20032;-58
2021/07/30 09:37:22;;;;;;;10.13;5.50;;;16.60;60.80;;;;;;5075414;28;20085;-54
2021/07/30 09:39:51;;;;;;;8.52;4.85;;;16.60;60.90;;;;;;5092499;28;20027;-65
2021/07/30 09:42:23;;;;;;;8.05;4.78;;;16.60;60.80;;;;;;5076865;28;20094;-62
2021/07/30 09:44:57;;;;;;;11.27;5.97;;;16.60;61.00;;;;;;5093341;28;20119;-62
2021/07/30 09:47:27;;;;;;;8.73;5.25;;;16.60;61.20;;;;;;5097384;28;20826;-57
2021/07/30 09:50:07;;;;;;;9.68;5.97;;;16.60;61.10;;;;;;5072335;28;20051;-61
2021/07/30 09:52:53;;;;;;;10.57;5.40;;;16.60;61.30;;;;;;5088543;28;20043;-60
2021/07/30 09:55:21;;;;;;;13.60;5.80;;;16.60;61.10;;;;;;5090932;28;20028;-59
2021/07/30 09:57:51;;;;;;;9.98;5.90;;;16.60;61.10;;;;;;5092175;28;20067;-56
2021/07/30 10:00:22;;;;;;;12.70;5.85;;;16.60;61.30;;;;;;5092740;28;20024;-63
2021/07/30 10:02:50;;;;;;;10.60;6.07;;;16.60;61.40;;;;;;5090258;28;20038;-59
2021/07/30 10:05:20;;;;;;;7.72;5.65;;;16.60;61.50;;;;;;5088943;28;20040;-61
2021/07/30 10:07:49;;;;;;;11.63;5.32;;;16.60;61.40;;;;;;5091865;28;20035;-61
2021/07/30 10:10:32;;;;;;;9.75;5.55;;;16.60;61.60;;;;;;5095064;28;20419;-58
2021/07/30 10:13:05;;;;;;;9.52;5.47;;;16.60;61.60;;;;;;5088707;28;20098;-59
2021/07/30 10:15:33;;;;;;;10.15;5.68;;;16.60;61.80;;;;;;5095221;28;20399;-58
2021/07/30 10:18:03;;;;;;;11.40;6.07;;;16.60;61.70;;;;;;5095265;28;20020;-57
2021/07/30 10:20:33;;;;;;;8.73;5.50;;;16.60;61.80;;;;;;5093721;28;20136;-57
2021/07/30 10:23:11;;;;;;;8.82;4.72;;;16.60;61.90;;;;;;5095325;28;20051;-58
2021/07/30 10:25:58;;;;;;;9.05;6.07;;;16.60;61.90;;;;;;5094156;28;20040;-55
2021/07/30 10:28:28;;;;;;;9.68;5.35;;;16.50;61.90;;;;;;5093145;28;20039;-57
2021/07/30 10:30:57;;;;;;;9.43;5.72;;;16.50;61.90;;;;;;5086506;28;20418;-52
2021/07/30 10:33:34;;;;;;;9.30;5.28;;;16.50;61.80;;;;;;5102532;28;20425;-55
2021/07/30 10:36:07;;;;;;;11.15;5.30;;;16.50;62.00;;;;;;5096462;28;20446;-49
2021/07/30 10:38:39;;;;;;;10.40;5.68;;;16.40;61.90;;;;;;5097687;28;20032;-56
2021/07/30 10:41:09;;;;;;;10.10;5.43;;;16.40;62.10;;;;;;5071481;28;20079;-61
2021/07/30 10:43:51;;;;;;;10.38;5.82;;;16.50;62.20;;;;;;5090224;28;20059;-63
2021/07/30 10:46:20;;;;;;;10.20;5.32;;;16.40;62.20;;;;;;5095366;28;20115;-62
2021/07/30 10:48:50;;;;;;;11.27;5.57;;;16.40;62.90;;;;;;5091170;28;20023;-60
2021/07/30 10:51:31;;;;;;;9.18;5.35;;;16.40;62.30;;;;;;5090318;28;20435;-61
2021/07/30 10:54:10;;;;;;;9.93;5.50;;;16.40;62.20;;;;;;5095760;28;20488;-60
2021/07/30 10:56:39;;;;;;;9.57;6.32;;;16.40;62.20;;;;;;5097688;28;20533;-59
2021/07/30 10:59:07;;;;;;;10.25;5.28;;;16.40;62.30;;;;;;5093860;28;20027;-60
2021/07/30 11:01:40;;;;;;;11.20;5.22;;;16.30;62.30;;;;;;5093673;28;20020;-57
2021/07/30 11:04:08;;;;;;;7.53;4.35;;;16.30;62.30;;;;;;5093562;28;21224;-60
2021/07/30 11:06:41;;;;;;;7.18;4.85;;;16.30;62.20;;;;;;5093448;28;20447;-63
2021/07/30 11:09:19;;;;;;;7.40;4.85;;;16.30;62.20;;;;;;5096513;28;20054;-56
2021/07/30 11:11:49;;;;;;;10.40;5.07;;;16.30;62.20;;;;;;5095286;28;20032;-58
2021/07/30 11:14:23;;;;;;;8.23;4.95;;;16.20;62.20;;;;;;5099118;28;20092;-52
2021/07/30 11:17:01;;;;;;;7.80;5.03;;;16.20;62.30;;;;;;5099645;28;20038;-54
2021/07/30 11:19:31;;;;;;;9.20;5.15;;;16.20;62.30;;;;;;5090940;28;20016;-54
2021/07/30 11:22:00;;;;;;;7.75;4.75;;;16.20;62.30;;;;;;5095891;28;20229;-56
2021/07/30 11:24:29;;;;;;;6.80;4.15;;;16.10;62.50;;;;;;5097985;28;20028;-57
2021/07/30 11:26:57;;;;;;;9.75;5.25;;;16.10;62.60;;;;;;5098735;28;20019;-57
2021/07/30 11:29:26;;;;;;;9.05;4.82;;;16.10;62.60;;;;;;5090405;28;20058;-60
2021/07/30 11:32:04;;;;;;;9.05;5.57;;;16.10;62.70;;;;;;5098494;28;20027;-56
2021/07/30 11:34:39;;;;;;;9.65;5.13;;;16.10;62.80;;;;;;5094601;28;20016;-53
2021/07/30 11:37:10;;;;;;;7.43;4.68;;;16.00;62.70;;;;;;5091577;28;20441;-57
2021/07/30 11:39:43;;;;;;;6.65;4.50;;;16.00;62.90;;;;;;5093584;28;20019;-58
2021/07/30 11:42:30;;;;;;;8.07;4.97;;;16.00;62.90;;;;;;5098087;28;20056;-57
2021/07/30 11:45:04;;;;;;;;;;;16.00;63.00;;;;;;5094403;28;20047;-53
2021/07/30 11:47:33;;;;;;;9.73;5.53;;;15.90;63.10;;;;;;5091389;28;19908;-55
2021/07/30 11:50:08;;;;;;;7.70;5.18;;;15.90;63.10;;;;;;5094433;28;20391;-61
2021/07/30 11:52:38;;;;;;;7.45;4.93;;;15.90;63.10;;;;;;5108172;28;20034;-59
2021/07/30 11:55:32;;;;;;;7.68;4.90;;;15.90;63.20;;;;;;5107998;28;20028;-61
2021/07/30 11:58:12;;;;;;;10.23;5.35;;;15.90;63.30;;;;;;5104513;28;20040;-56
2021/07/30 12:00:40;;;;;;;9.13;4.70;;;15.90;63.30;;;;;;5108388;28;20031;-57
2021/07/30 12:03:19;;;;;;;6.30;4.28;;;15.80;63.30;;;;;;5107925;28;20035;-56
2021/07/30 12:05:49;;;;;;;7.07;4.10;;;15.80;63.30;;;;;;5107429;28;20104;-59
2021/07/30 12:08:18;;;;;;;8.05;4.75;;;15.80;63.30;;;;;;5107371;28;20386;-60
2021/07/30 12:10:50;;;;;;;12.63;5.25;;;15.80;63.30;;;;;;5107452;28;20039;-59
2021/07/30 12:13:18;;;;;;;;;;;15.80;63.30;;;;;;5108254;28;20540;-58
2021/07/30 12:15:46;;;;;;;5.95;4.55;;;15.80;63.40;;;;;;5107693;28;19908;-60
2021/07/30 12:18:14;;;;;;;11.20;5.57;;;15.80;63.20;;;;;;5106580;28;20038;-59
2021/07/30 12:20:43;;;;;;;8.07;4.93;;;15.80;63.10;;;;;;5107074;28;20024;-56
2021/07/30 12:23:14;;;;;;;7.53;4.20;;;15.80;63.60;;;;;;5107316;28;20047;-55
2021/07/30 12:25:48;;;;;;;6.53;4.90;;;15.70;63.50;;;;;;5107529;28;20027;-56
2021/07/30 12:28:17;;;;;;;6.60;4.18;;;15.80;63.60;;;;;;5106774;28;20043;-56
2021/07/30 12:30:52;;;;;;;7.82;4.28;;;15.80;63.60;;;;;;5106954;28;20035;-59
2021/07/30 12:33:25;;;;;;;6.93;4.28;;;15.80;63.60;;;;;;5107485;28;20027;-61
2021/07/30 12:36:10;;;;;;;9.68;4.50;;;15.80;63.60;;;;;;5107171;28;20049;-63
2021/07/30 12:38:59;;;;;;;7.70;4.47;;;15.80;63.50;;;;;;5107017;28;20385;-59
2021/07/30 12:41:31;;;;;;;5.60;3.42;;;15.80;63.50;;;;;;5107295;28;20031;-60
2021/07/30 12:44:18;;;;;;;5.90;4.13;;;15.80;63.40;;;;;;5107615;28;20032;-59
2021/07/30 12:46:50;;;;;;;6.30;3.95;;;15.80;63.30;;;;;;5100095;28;20114;-59
2021/07/30 12:49:38;;;;;;;7.57;4.28;;;15.80;63.40;;;;;;5106670;28;20051;-56
2021/07/30 12:52:14;;;;;;;7.13;3.95;;;15.80;63.50;;;;;;5106701;28;20115;-52